Aviation Digital Data Service (ADDS)

Output produced by METARs form (0338 UTC 26 October 2014)
found at http://aviationweather.gov/adds/metars/
 
KDFW 260301Z 2603/2706 18008KT P6SM SKC 
     FM261800 18016KT P6SM SCT250